sensor_id;sensor_type;location;lat;lon;timestamp;temperature;humidity
56172;DHT22;42052;41.634;-0.946;2022-12-18T00:01:27;22.00;44.90
56172;DHT22;42052;41.634;-0.946;2022-12-18T00:04:22;22.00;44.90
56172;DHT22;42052;41.634;-0.946;2022-12-18T00:07:08;22.00;44.80
56172;DHT22;42052;41.634;-0.946;2022-12-18T00:09:54;22.00;44.90
56172;DHT22;42052;41.634;-0.946;2022-12-18T00:12:40;22.00;44.90
56172;DHT22;42052;41.634;-0.946;2022-12-18T00:15:26;22.00;44.70
56172;DHT22;42052;41.634;-0.946;2022-12-18T00:18:13;22.00;44.80
56172;DHT22;42052;41.634;-0.946;2022-12-18T00:21:04;22.00;44.90
56172;DHT22;42052;41.634;-0.946;2022-12-18T00:23:51;22.00;44.80
56172;DHT22;42052;41.634;-0.946;2022-12-18T00:26:38;21.90;44.90
56172;DHT22;42052;41.634;-0.946;2022-12-18T00:29:24;21.90;44.90
56172;DHT22;42052;41.634;-0.946;2022-12-18T00:32:11;21.90;44.80
56172;DHT22;42052;41.634;-0.946;2022-12-18T00:34:57;21.90;44.80
56172;DHT22;42052;41.634;-0.946;2022-12-18T00:37:42;21.90;44.80
56172;DHT22;42052;41.634;-0.946;2022-12-18T00:40:29;21.90;44.90
56172;DHT22;42052;41.634;-0.946;2022-12-18T00:43:15;21.90;44.80
56172;DHT22;42052;41.634;-0.946;2022-12-18T00:46:01;21.90;44.90
56172;DHT22;42052;41.634;-0.946;2022-12-18T00:48:47;21.90;44.90
56172;DHT22;42052;41.634;-0.946;2022-12-18T00:51:33;21.90;44.80
56172;DHT22;42052;41.634;-0.946;2022-12-18T00:54:19;21.90;44.80
56172;DHT22;42052;41.634;-0.946;2022-12-18T00:57:05;21.90;44.90
56172;DHT22;42052;41.634;-0.946;2022-12-18T00:59:51;21.80;44.80
56172;DHT22;42052;41.634;-0.946;2022-12-18T01:02:37;21.80;44.80
56172;DHT22;42052;41.634;-0.946;2022-12-18T01:05:23;21.90;44.80
56172;DHT22;42052;41.634;-0.946;2022-12-18T01:08:10;21.90;44.70
56172;DHT22;42052;41.634;-0.946;2022-12-18T01:10:56;21.90;44.60
56172;DHT22;42052;41.634;-0.946;2022-12-18T01:13:42;21.90;44.70
56172;DHT22;42052;41.634;-0.946;2022-12-18T01:16:28;21.90;44.70
56172;DHT22;42052;41.634;-0.946;2022-12-18T01:19:14;22.00;44.50
56172;DHT22;42052;41.634;-0.946;2022-12-18T01:22:00;22.10;44.30
56172;DHT22;42052;41.634;-0.946;2022-12-18T01:24:46;22.10;44.20
56172;DHT22;42052;41.634;-0.946;2022-12-18T01:27:33;22.00;44.40
56172;DHT22;42052;41.634;-0.946;2022-12-18T01:30:19;22.00;44.50
56172;DHT22;42052;41.634;-0.946;2022-12-18T01:33:05;21.90;44.50
56172;DHT22;42052;41.634;-0.946;2022-12-18T01:35:51;21.90;44.50
56172;DHT22;42052;41.634;-0.946;2022-12-18T01:38:37;21.90;44.60
56172;DHT22;42052;41.634;-0.946;2022-12-18T01:41:26;21.90;44.60
56172;DHT22;42052;41.634;-0.946;2022-12-18T01:50:38;21.80;44.60
56172;DHT22;42052;41.634;-0.946;2022-12-18T01:53:25;21.80;44.60
56172;DHT22;42052;41.634;-0.946;2022-12-18T01:56:19;21.80;44.60
56172;DHT22;42052;41.634;-0.946;2022-12-18T01:59:06;21.80;44.70
56172;DHT22;42052;41.634;-0.946;2022-12-18T02:01:53;21.80;44.60
56172;DHT22;42052;41.634;-0.946;2022-12-18T02:04:39;21.80;44.70
56172;DHT22;42052;41.634;-0.946;2022-12-18T02:07:36;21.80;44.70
56172;DHT22;42052;41.634;-0.946;2022-12-18T02:17:21;21.70;44.70
56172;DHT22;42052;41.634;-0.946;2022-12-18T02:20:34;21.70;44.60
56172;DHT22;42052;41.634;-0.946;2022-12-18T02:27:04;21.70;44.70
56172;DHT22;42052;41.634;-0.946;2022-12-18T02:29:54;21.80;45.50
56172;DHT22;42052;41.634;-0.946;2022-12-18T02:32:45;21.70;44.70
56172;DHT22;42052;41.634;-0.946;2022-12-18T02:35:32;21.70;44.70
56172;DHT22;42052;41.634;-0.946;2022-12-18T02:38:19;21.70;44.70
56172;DHT22;42052;41.634;-0.946;2022-12-18T02:41:06;21.70;44.60
56172;DHT22;42052;41.634;-0.946;2022-12-18T02:44:00;21.70;44.60
56172;DHT22;42052;41.634;-0.946;2022-12-18T02:46:52;21.70;44.60
56172;DHT22;42052;41.634;-0.946;2022-12-18T02:49:49;21.70;44.70
56172;DHT22;42052;41.634;-0.946;2022-12-18T02:56:26;21.70;44.60
56172;DHT22;42052;41.634;-0.946;2022-12-18T02:59:17;21.70;44.60
56172;DHT22;42052;41.634;-0.946;2022-12-18T03:02:17;21.60;44.70
56172;DHT22;42052;41.634;-0.946;2022-12-18T03:05:42;21.60;44.50
56172;DHT22;42052;41.634;-0.946;2022-12-18T03:08:35;21.70;44.60
56172;DHT22;42052;41.634;-0.946;2022-12-18T03:11:23;21.70;44.60
56172;DHT22;42052;41.634;-0.946;2022-12-18T03:14:32;21.60;44.60
56172;DHT22;42052;41.634;-0.946;2022-12-18T03:17:23;21.70;44.70
56172;DHT22;42052;41.634;-0.946;2022-12-18T03:20:14;21.60;44.50
56172;DHT22;42052;41.634;-0.946;2022-12-18T03:23:10;21.60;44.60
56172;DHT22;42052;41.634;-0.946;2022-12-18T03:26:02;21.60;44.70
56172;DHT22;42052;41.634;-0.946;2022-12-18T03:28:58;21.60;44.80
56172;DHT22;42052;41.634;-0.946;2022-12-18T03:31:49;21.60;44.50
56172;DHT22;42052;41.634;-0.946;2022-12-18T03:34:39;21.60;44.60
56172;DHT22;42052;41.634;-0.946;2022-12-18T03:37:27;21.60;44.60
56172;DHT22;42052;41.634;-0.946;2022-12-18T03:40:13;21.60;44.60
56172;DHT22;42052;41.634;-0.946;2022-12-18T03:43:11;21.60;44.60
56172;DHT22;42052;41.634;-0.946;2022-12-18T03:46:11;21.60;44.60
56172;DHT22;42052;41.634;-0.946;2022-12-18T03:49:03;21.60;44.50
56172;DHT22;42052;41.634;-0.946;2022-12-18T03:52:16;21.60;44.60
56172;DHT22;42052;41.634;-0.946;2022-12-18T03:55:05;21.60;44.60
56172;DHT22;42052;41.634;-0.946;2022-12-18T03:57:54;21.60;44.60
56172;DHT22;42052;41.634;-0.946;2022-12-18T04:00:40;21.50;44.60
56172;DHT22;42052;41.634;-0.946;2022-12-18T04:03:28;21.50;44.50
56172;DHT22;42052;41.634;-0.946;2022-12-18T04:06:16;21.50;44.70
56172;DHT22;42052;41.634;-0.946;2022-12-18T04:09:02;21.50;45.40
56172;DHT22;42052;41.634;-0.946;2022-12-18T04:11:51;21.50;44.70
56172;DHT22;42052;41.634;-0.946;2022-12-18T04:14:37;21.50;44.70
56172;DHT22;42052;41.634;-0.946;2022-12-18T04:17:23;21.50;44.70
56172;DHT22;42052;41.634;-0.946;2022-12-18T04:20:10;21.50;44.90
56172;DHT22;42052;41.634;-0.946;2022-12-18T04:22:56;21.50;44.80
56172;DHT22;42052;41.634;-0.946;2022-12-18T04:25:42;21.50;44.70
56172;DHT22;42052;41.634;-0.946;2022-12-18T04:28:28;21.50;44.80
56172;DHT22;42052;41.634;-0.946;2022-12-18T04:31:14;21.50;44.70
56172;DHT22;42052;41.634;-0.946;2022-12-18T04:34:00;21.50;44.70
56172;DHT22;42052;41.634;-0.946;2022-12-18T04:36:46;21.50;44.60
56172;DHT22;42052;41.634;-0.946;2022-12-18T04:39:32;21.50;44.60
56172;DHT22;42052;41.634;-0.946;2022-12-18T04:42:18;21.50;44.70
56172;DHT22;42052;41.634;-0.946;2022-12-18T04:45:05;21.50;44.60
56172;DHT22;42052;41.634;-0.946;2022-12-18T04:47:51;21.50;44.70
56172;DHT22;42052;41.634;-0.946;2022-12-18T04:50:37;21.50;44.60
56172;DHT22;42052;41.634;-0.946;2022-12-18T04:53:23;21.40;44.50
56172;DHT22;42052;41.634;-0.946;2022-12-18T04:56:13;21.40;44.60
56172;DHT22;42052;41.634;-0.946;2022-12-18T04:58:59;21.40;44.60
56172;DHT22;42052;41.634;-0.946;2022-12-18T05:01:45;21.40;44.70
56172;DHT22;42052;41.634;-0.946;2022-12-18T05:04:31;21.40;44.60
56172;DHT22;42052;41.634;-0.946;2022-12-18T05:07:17;21.40;44.60
56172;DHT22;42052;41.634;-0.946;2022-12-18T05:10:04;21.40;44.60
56172;DHT22;42052;41.634;-0.946;2022-12-18T05:12:50;21.40;44.80
56172;DHT22;42052;41.634;-0.946;2022-12-18T05:15:51;21.40;44.70
56172;DHT22;42052;41.634;-0.946;2022-12-18T05:18:38;21.40;44.70
56172;DHT22;42052;41.634;-0.946;2022-12-18T05:21:24;21.40;44.60
56172;DHT22;42052;41.634;-0.946;2022-12-18T05:24:10;21.40;44.70
56172;DHT22;42052;41.634;-0.946;2022-12-18T05:26:56;21.40;44.70
56172;DHT22;42052;41.634;-0.946;2022-12-18T05:29:42;21.40;44.70
56172;DHT22;42052;41.634;-0.946;2022-12-18T05:32:28;21.30;44.70
56172;DHT22;42052;41.634;-0.946;2022-12-18T05:35:14;21.30;44.70
56172;DHT22;42052;41.634;-0.946;2022-12-18T05:38:00;21.30;44.80
56172;DHT22;42052;41.634;-0.946;2022-12-18T05:40:48;21.30;44.60
56172;DHT22;42052;41.634;-0.946;2022-12-18T05:43:36;21.30;44.70
56172;DHT22;42052;41.634;-0.946;2022-12-18T05:46:22;21.30;44.70
56172;DHT22;42052;41.634;-0.946;2022-12-18T05:49:08;21.30;44.70
56172;DHT22;42052;41.634;-0.946;2022-12-18T05:51:54;21.30;44.80
56172;DHT22;42052;41.634;-0.946;2022-12-18T05:54:40;21.30;44.90
56172;DHT22;42052;41.634;-0.946;2022-12-18T05:57:27;21.20;44.70
56172;DHT22;42052;41.634;-0.946;2022-12-18T06:00:13;21.30;44.80
56172;DHT22;42052;41.634;-0.946;2022-12-18T06:02:59;21.30;44.80
56172;DHT22;42052;41.634;-0.946;2022-12-18T06:05:45;21.30;44.80
56172;DHT22;42052;41.634;-0.946;2022-12-18T06:08:31;21.30;44.90
56172;DHT22;42052;41.634;-0.946;2022-12-18T06:11:20;21.30;44.90
56172;DHT22;42052;41.634;-0.946;2022-12-18T06:14:08;21.20;44.70
56172;DHT22;42052;41.634;-0.946;2022-12-18T06:16:54;21.20;44.70
56172;DHT22;42052;41.634;-0.946;2022-12-18T06:19:40;21.30;44.70
56172;DHT22;42052;41.634;-0.946;2022-12-18T06:22:27;21.20;44.70
56172;DHT22;42052;41.634;-0.946;2022-12-18T06:25:13;21.20;44.70
56172;DHT22;42052;41.634;-0.946;2022-12-18T06:27:59;21.20;44.70
56172;DHT22;42052;41.634;-0.946;2022-12-18T06:30:46;21.20;44.80
56172;DHT22;42052;41.634;-0.946;2022-12-18T06:33:35;21.20;44.60
56172;DHT22;42052;41.634;-0.946;2022-12-18T06:36:21;21.20;44.60
56172;DHT22;42052;41.634;-0.946;2022-12-18T06:39:07;21.20;44.70
56172;DHT22;42052;41.634;-0.946;2022-12-18T06:41:53;21.20;44.70
56172;DHT22;42052;41.634;-0.946;2022-12-18T06:44:40;21.20;44.70
56172;DHT22;42052;41.634;-0.946;2022-12-18T06:47:26;21.20;44.70
56172;DHT22;42052;41.634;-0.946;2022-12-18T06:50:12;21.20;44.90
56172;DHT22;42052;41.634;-0.946;2022-12-18T06:52:59;21.20;44.70
56172;DHT22;42052;41.634;-0.946;2022-12-18T06:55:45;21.20;44.80
56172;DHT22;42052;41.634;-0.946;2022-12-18T06:58:31;21.20;44.90
56172;DHT22;42052;41.634;-0.946;2022-12-18T07:01:18;21.20;44.90
56172;DHT22;42052;41.634;-0.946;2022-12-18T07:04:04;21.10;44.80
56172;DHT22;42052;41.634;-0.946;2022-12-18T07:06:50;21.10;44.80
56172;DHT22;42052;41.634;-0.946;2022-12-18T07:09:36;21.10;44.90
56172;DHT22;42052;41.634;-0.946;2022-12-18T07:12:22;21.10;44.80
56172;DHT22;42052;41.634;-0.946;2022-12-18T07:15:08;21.10;44.80
56172;DHT22;42052;41.634;-0.946;2022-12-18T07:17:54;21.10;44.90
56172;DHT22;42052;41.634;-0.946;2022-12-18T07:20:41;21.10;44.90
56172;DHT22;42052;41.634;-0.946;2022-12-18T07:23:27;21.10;45.00
56172;DHT22;42052;41.634;-0.946;2022-12-18T07:26:14;21.10;45.00
56172;DHT22;42052;41.634;-0.946;2022-12-18T07:29:01;21.10;44.80
56172;DHT22;42052;41.634;-0.946;2022-12-18T07:31:47;21.10;44.80
56172;DHT22;42052;41.634;-0.946;2022-12-18T07:34:33;21.10;44.90
56172;DHT22;42052;41.634;-0.946;2022-12-18T07:37:20;21.10;44.90
56172;DHT22;42052;41.634;-0.946;2022-12-18T07:40:06;21.10;45.00
56172;DHT22;42052;41.634;-0.946;2022-12-18T07:42:53;21.10;44.90
56172;DHT22;42052;41.634;-0.946;2022-12-18T07:45:39;21.10;45.00
56172;DHT22;42052;41.634;-0.946;2022-12-18T07:48:25;21.20;44.90
56172;DHT22;42052;41.634;-0.946;2022-12-18T07:51:11;21.10;44.90
56172;DHT22;42052;41.634;-0.946;2022-12-18T07:53:58;21.10;45.00
56172;DHT22;42052;41.634;-0.946;2022-12-18T07:56:44;21.10;45.00
56172;DHT22;42052;41.634;-0.946;2022-12-18T07:59:30;21.20;45.00
56172;DHT22;42052;41.634;-0.946;2022-12-18T08:02:16;21.20;45.00
56172;DHT22;42052;41.634;-0.946;2022-12-18T08:05:02;21.10;44.90
56172;DHT22;42052;41.634;-0.946;2022-12-18T08:07:48;21.20;45.00
56172;DHT22;42052;41.634;-0.946;2022-12-18T08:10:35;21.10;44.90
56172;DHT22;42052;41.634;-0.946;2022-12-18T08:13:21;21.10;44.80
56172;DHT22;42052;41.634;-0.946;2022-12-18T08:16:07;21.10;44.80
56172;DHT22;42052;41.634;-0.946;2022-12-18T08:18:54;21.10;44.90
56172;DHT22;42052;41.634;-0.946;2022-12-18T08:21:41;21.10;44.80
56172;DHT22;42052;41.634;-0.946;2022-12-18T08:24:27;21.10;44.80
56172;DHT22;42052;41.634;-0.946;2022-12-18T08:27:13;21.10;45.00
56172;DHT22;42052;41.634;-0.946;2022-12-18T08:30:00;21.10;44.90
56172;DHT22;42052;41.634;-0.946;2022-12-18T08:32:46;21.10;45.00
56172;DHT22;42052;41.634;-0.946;2022-12-18T08:35:35;21.10;45.00
56172;DHT22;42052;41.634;-0.946;2022-12-18T08:38:22;21.20;45.20
56172;DHT22;42052;41.634;-0.946;2022-12-18T08:41:11;21.20;45.30
56172;DHT22;42052;41.634;-0.946;2022-12-18T08:43:57;21.20;45.20
56172;DHT22;42052;41.634;-0.946;2022-12-18T08:47:02;21.20;45.20
56172;DHT22;42052;41.634;-0.946;2022-12-18T08:49:48;21.20;45.40
56172;DHT22;42052;41.634;-0.946;2022-12-18T08:52:34;21.20;45.20
56172;DHT22;42052;41.634;-0.946;2022-12-18T08:55:20;21.20;45.40
56172;DHT22;42052;41.634;-0.946;2022-12-18T08:58:06;21.20;45.60
56172;DHT22;42052;41.634;-0.946;2022-12-18T09:00:52;21.20;45.50
56172;DHT22;42052;41.634;-0.946;2022-12-18T09:03:39;21.10;45.50
56172;DHT22;42052;41.634;-0.946;2022-12-18T09:06:25;21.20;45.50
56172;DHT22;42052;41.634;-0.946;2022-12-18T09:09:12;21.20;45.40
56172;DHT22;42052;41.634;-0.946;2022-12-18T09:11:58;21.20;45.30
56172;DHT22;42052;41.634;-0.946;2022-12-18T09:14:44;21.10;45.30
56172;DHT22;42052;41.634;-0.946;2022-12-18T09:17:30;21.10;45.30
56172;DHT22;42052;41.634;-0.946;2022-12-18T09:20:17;21.10;45.30
56172;DHT22;42052;41.634;-0.946;2022-12-18T09:23:03;21.10;45.90
56172;DHT22;42052;41.634;-0.946;2022-12-18T09:25:50;21.20;45.20
56172;DHT22;42052;41.634;-0.946;2022-12-18T09:28:36;21.20;45.20
56172;DHT22;42052;41.634;-0.946;2022-12-18T09:31:23;21.20;45.20
56172;DHT22;42052;41.634;-0.946;2022-12-18T09:34:09;21.10;45.10
56172;DHT22;42052;41.634;-0.946;2022-12-18T09:36:55;21.20;45.20
56172;DHT22;42052;41.634;-0.946;2022-12-18T09:39:41;21.20;45.30
56172;DHT22;42052;41.634;-0.946;2022-12-18T09:42:28;21.10;45.20
56172;DHT22;42052;41.634;-0.946;2022-12-18T09:45:15;21.20;45.30
56172;DHT22;42052;41.634;-0.946;2022-12-18T09:48:02;21.10;45.10
56172;DHT22;42052;41.634;-0.946;2022-12-18T09:50:50;21.20;45.00
56172;DHT22;42052;41.634;-0.946;2022-12-18T09:53:38;21.20;44.60
56172;DHT22;42052;41.634;-0.946;2022-12-18T09:56:28;21.30;44.40
56172;DHT22;42052;41.634;-0.946;2022-12-18T09:59:25;21.30;44.10
56172;DHT22;42052;41.634;-0.946;2022-12-18T10:02:23;21.40;44.20
56172;DHT22;42052;41.634;-0.946;2022-12-18T10:05:20;21.40;44.30
56172;DHT22;42052;41.634;-0.946;2022-12-18T10:08:25;21.30;44.30
56172;DHT22;42052;41.634;-0.946;2022-12-18T10:20:32;21.30;44.40
56172;DHT22;42052;41.634;-0.946;2022-12-18T10:26:24;21.20;43.80
56172;DHT22;42052;41.634;-0.946;2022-12-18T10:29:16;21.20;43.90
56172;DHT22;42052;41.634;-0.946;2022-12-18T10:32:02;21.20;43.70
56172;DHT22;42052;41.634;-0.946;2022-12-18T10:34:50;21.20;43.60
56172;DHT22;42052;41.634;-0.946;2022-12-18T10:37:36;21.20;43.40
56172;DHT22;42052;41.634;-0.946;2022-12-18T10:43:46;21.10;43.30
56172;DHT22;42052;41.634;-0.946;2022-12-18T10:46:32;21.10;43.30
56172;DHT22;42052;41.634;-0.946;2022-12-18T10:49:26;21.20;43.30
56172;DHT22;42052;41.634;-0.946;2022-12-18T10:52:24;21.10;43.30
56172;DHT22;42052;41.634;-0.946;2022-12-18T10:55:16;21.10;43.30
56172;DHT22;42052;41.634;-0.946;2022-12-18T10:58:21;21.10;43.20
56172;DHT22;42052;41.634;-0.946;2022-12-18T11:09:43;21.10;43.20
56172;DHT22;42052;41.634;-0.946;2022-12-18T11:12:29;21.10;43.20
56172;DHT22;42052;41.634;-0.946;2022-12-18T11:15:35;21.10;43.20
56172;DHT22;42052;41.634;-0.946;2022-12-18T11:18:25;21.10;43.20
56172;DHT22;42052;41.634;-0.946;2022-12-18T11:21:13;21.10;43.20
56172;DHT22;42052;41.634;-0.946;2022-12-18T11:24:00;21.10;43.20
56172;DHT22;42052;41.634;-0.946;2022-12-18T11:26:46;21.10;43.20
56172;DHT22;42052;41.634;-0.946;2022-12-18T11:29:38;21.10;43.10
56172;DHT22;42052;41.634;-0.946;2022-12-18T11:38:39;21.10;43.40
56172;DHT22;42052;41.634;-0.946;2022-12-18T11:41:30;21.10;43.40
56172;DHT22;42052;41.634;-0.946;2022-12-18T11:44:51;21.10;43.30
56172;DHT22;42052;41.634;-0.946;2022-12-18T11:50:37;21.10;43.60
56172;DHT22;42052;41.634;-0.946;2022-12-18T11:53:29;21.10;43.50
56172;DHT22;42052;41.634;-0.946;2022-12-18T11:56:36;21.10;43.50
56172;DHT22;42052;41.634;-0.946;2022-12-18T12:03:14;21.10;43.70
56172;DHT22;42052;41.634;-0.946;2022-12-18T12:09:23;21.10;43.50
56172;DHT22;42052;41.634;-0.946;2022-12-18T12:12:34;21.10;43.40
56172;DHT22;42052;41.634;-0.946;2022-12-18T12:15:53;21.20;43.40
56172;DHT22;42052;41.634;-0.946;2022-12-18T12:21:46;21.20;43.40
56172;DHT22;42052;41.634;-0.946;2022-12-18T12:24:50;21.20;43.40
56172;DHT22;42052;41.634;-0.946;2022-12-18T12:28:01;21.20;43.40
56172;DHT22;42052;41.634;-0.946;2022-12-18T12:40:34;21.20;43.30
56172;DHT22;42052;41.634;-0.946;2022-12-18T12:43:25;21.20;43.50
56172;DHT22;42052;41.634;-0.946;2022-12-18T12:46:15;21.10;44.20
56172;DHT22;42052;41.634;-0.946;2022-12-18T12:49:04;21.10;44.70
56172;DHT22;42052;41.634;-0.946;2022-12-18T12:52:06;21.10;45.20
56172;DHT22;42052;41.634;-0.946;2022-12-18T12:54:53;21.10;45.30
56172;DHT22;42052;41.634;-0.946;2022-12-18T12:57:44;21.10;45.60
56172;DHT22;42052;41.634;-0.946;2022-12-18T13:00:40;21.00;45.60
56172;DHT22;42052;41.634;-0.946;2022-12-18T13:06:57;21.10;45.60
56172;DHT22;42052;41.634;-0.946;2022-12-18T13:10:13;21.10;45.60
56172;DHT22;42052;41.634;-0.946;2022-12-18T13:13:07;21.20;45.50
56172;DHT22;42052;41.634;-0.946;2022-12-18T13:16:06;21.20;45.40
56172;DHT22;42052;41.634;-0.946;2022-12-18T13:18:54;21.20;45.30
56172;DHT22;42052;41.634;-0.946;2022-12-18T13:21:53;21.20;45.30
56172;DHT22;42052;41.634;-0.946;2022-12-18T13:24:39;21.20;45.30
56172;DHT22;42052;41.634;-0.946;2022-12-18T13:36:29;21.30;45.20
56172;DHT22;42052;41.634;-0.946;2022-12-18T13:39:39;21.30;45.30
56172;DHT22;42052;41.634;-0.946;2022-12-18T13:42:38;21.30;45.20
56172;DHT22;42052;41.634;-0.946;2022-12-18T13:45:50;21.40;45.10
56172;DHT22;42052;41.634;-0.946;2022-12-18T13:51:59;21.30;45.00
56172;DHT22;42052;41.634;-0.946;2022-12-18T13:54:51;21.40;45.10
56172;DHT22;42052;41.634;-0.946;2022-12-18T13:57:38;21.40;45.10
56172;DHT22;42052;41.634;-0.946;2022-12-18T14:00:26;21.40;45.20
56172;DHT22;42052;41.634;-0.946;2022-12-18T14:03:26;21.40;45.10
56172;DHT22;42052;41.634;-0.946;2022-12-18T14:06:13;21.40;45.10
56172;DHT22;42052;41.634;-0.946;2022-12-18T14:08:59;21.40;45.10
56172;DHT22;42052;41.634;-0.946;2022-12-18T14:11:49;21.40;45.10
56172;DHT22;42052;41.634;-0.946;2022-12-18T14:14:36;21.40;45.10
56172;DHT22;42052;41.634;-0.946;2022-12-18T14:17:23;21.40;45.00
56172;DHT22;42052;41.634;-0.946;2022-12-18T14:20:14;21.50;45.00
56172;DHT22;42052;41.634;-0.946;2022-12-18T14:23:01;21.60;44.90
56172;DHT22;42052;41.634;-0.946;2022-12-18T14:25:47;21.60;44.80
56172;DHT22;42052;41.634;-0.946;2022-12-18T14:28:43;21.60;44.70
56172;DHT22;42052;41.634;-0.946;2022-12-18T14:31:31;21.60;44.60
56172;DHT22;42052;41.634;-0.946;2022-12-18T14:34:17;21.60;44.70
56172;DHT22;42052;41.634;-0.946;2022-12-18T14:37:05;21.60;44.70
56172;DHT22;42052;41.634;-0.946;2022-12-18T14:40:02;21.60;44.80
56172;DHT22;42052;41.634;-0.946;2022-12-18T14:42:48;21.60;44.90
56172;DHT22;42052;41.634;-0.946;2022-12-18T14:45:41;21.60;44.90
56172;DHT22;42052;41.634;-0.946;2022-12-18T14:48:47;21.50;45.00
56172;DHT22;42052;41.634;-0.946;2022-12-18T14:51:34;21.60;45.00
56172;DHT22;42052;41.634;-0.946;2022-12-18T14:54:23;21.60;45.00
56172;DHT22;42052;41.634;-0.946;2022-12-18T14:57:24;21.60;45.00
56172;DHT22;42052;41.634;-0.946;2022-12-18T15:00:19;21.60;45.00
56172;DHT22;42052;41.634;-0.946;2022-12-18T15:03:07;21.60;45.10
56172;DHT22;42052;41.634;-0.946;2022-12-18T15:05:54;21.60;45.00
56172;DHT22;42052;41.634;-0.946;2022-12-18T15:08:40;21.60;45.00
56172;DHT22;42052;41.634;-0.946;2022-12-18T15:11:44;21.60;45.10
56172;DHT22;42052;41.634;-0.946;2022-12-18T15:17:22;21.60;45.10
56172;DHT22;42052;41.634;-0.946;2022-12-18T15:20:10;21.60;45.10
56172;DHT22;42052;41.634;-0.946;2022-12-18T15:22:56;21.60;45.10
56172;DHT22;42052;41.634;-0.946;2022-12-18T15:25:42;21.60;45.10
56172;DHT22;42052;41.634;-0.946;2022-12-18T15:28:32;21.60;45.10
56172;DHT22;42052;41.634;-0.946;2022-12-18T15:31:30;21.60;45.10
56172;DHT22;42052;41.634;-0.946;2022-12-18T15:34:23;21.60;45.10
56172;DHT22;42052;41.634;-0.946;2022-12-18T15:37:09;21.60;45.20
56172;DHT22;42052;41.634;-0.946;2022-12-18T15:39:55;21.60;45.10
56172;DHT22;42052;41.634;-0.946;2022-12-18T15:42:42;21.60;45.10
56172;DHT22;42052;41.634;-0.946;2022-12-18T15:45:47;21.60;45.10
56172;DHT22;42052;41.634;-0.946;2022-12-18T15:48:35;21.60;45.80
56172;DHT22;42052;41.634;-0.946;2022-12-18T15:51:35;21.60;45.10
56172;DHT22;42052;41.634;-0.946;2022-12-18T15:54:22;21.60;45.00
56172;DHT22;42052;41.634;-0.946;2022-12-18T15:57:28;21.60;45.10
56172;DHT22;42052;41.634;-0.946;2022-12-18T16:00:14;21.60;45.10
56172;DHT22;42052;41.634;-0.946;2022-12-18T16:03:01;21.60;45.00
56172;DHT22;42052;41.634;-0.946;2022-12-18T16:05:47;21.60;45.10
56172;DHT22;42052;41.634;-0.946;2022-12-18T16:08:33;21.60;45.10
56172;DHT22;42052;41.634;-0.946;2022-12-18T16:11:29;21.60;45.10
56172;DHT22;42052;41.634;-0.946;2022-12-18T16:14:29;21.60;45.00
56172;DHT22;42052;41.634;-0.946;2022-12-18T16:17:16;21.60;45.10
56172;DHT22;42052;41.634;-0.946;2022-12-18T16:20:02;21.60;45.30
56172;DHT22;42052;41.634;-0.946;2022-12-18T16:22:49;21.50;45.50
56172;DHT22;42052;41.634;-0.946;2022-12-18T16:25:35;21.60;45.50
56172;DHT22;42052;41.634;-0.946;2022-12-18T16:28:21;21.60;45.50
56172;DHT22;42052;41.634;-0.946;2022-12-18T16:31:07;21.60;45.50
56172;DHT22;42052;41.634;-0.946;2022-12-18T16:34:34;21.60;45.50
56172;DHT22;42052;41.634;-0.946;2022-12-18T16:37:19;21.60;45.60
56172;DHT22;42052;41.634;-0.946;2022-12-18T16:40:07;21.50;45.50
56172;DHT22;42052;41.634;-0.946;2022-12-18T16:42:54;21.50;45.50
56172;DHT22;42052;41.634;-0.946;2022-12-18T16:45:40;21.50;45.50
56172;DHT22;42052;41.634;-0.946;2022-12-18T16:48:26;21.50;45.60
56172;DHT22;42052;41.634;-0.946;2022-12-18T16:51:12;21.50;45.60
56172;DHT22;42052;41.634;-0.946;2022-12-18T16:53:58;21.60;45.60
56172;DHT22;42052;41.634;-0.946;2022-12-18T16:56:44;21.60;46.00
56172;DHT22;42052;41.634;-0.946;2022-12-18T16:59:32;21.60;45.60
56172;DHT22;42052;41.634;-0.946;2022-12-18T17:02:21;21.50;45.60
56172;DHT22;42052;41.634;-0.946;2022-12-18T17:05:08;21.60;45.70
56172;DHT22;42052;41.634;-0.946;2022-12-18T17:07:54;21.50;45.50
56172;DHT22;42052;41.634;-0.946;2022-12-18T17:10:40;21.50;45.60
56172;DHT22;42052;41.634;-0.946;2022-12-18T17:13:26;21.60;45.60
56172;DHT22;42052;41.634;-0.946;2022-12-18T17:16:12;21.50;45.80
56172;DHT22;42052;41.634;-0.946;2022-12-18T17:18:58;21.50;45.80
56172;DHT22;42052;41.634;-0.946;2022-12-18T17:21:48;21.50;45.80
56172;DHT22;42052;41.634;-0.946;2022-12-18T17:24:35;21.60;45.80
56172;DHT22;42052;41.634;-0.946;2022-12-18T17:27:21;21.60;45.90
56172;DHT22;42052;41.634;-0.946;2022-12-18T17:30:08;21.60;45.70
56172;DHT22;42052;41.634;-0.946;2022-12-18T17:32:54;21.60;45.80
56172;DHT22;42052;41.634;-0.946;2022-12-18T17:35:40;21.60;45.80
56172;DHT22;42052;41.634;-0.946;2022-12-18T17:38:26;21.60;45.80
56172;DHT22;42052;41.634;-0.946;2022-12-18T17:41:12;21.60;45.70
56172;DHT22;42052;41.634;-0.946;2022-12-18T17:44:03;21.60;45.70
56172;DHT22;42052;41.634;-0.946;2022-12-18T17:46:49;21.60;45.70
56172;DHT22;42052;41.634;-0.946;2022-12-18T17:49:36;21.60;45.70
56172;DHT22;42052;41.634;-0.946;2022-12-18T17:52:22;21.60;45.80
56172;DHT22;42052;41.634;-0.946;2022-12-18T17:55:08;21.50;45.70
56172;DHT22;42052;41.634;-0.946;2022-12-18T17:57:54;21.50;45.80
56172;DHT22;42052;41.634;-0.946;2022-12-18T18:00:40;21.50;45.70
56172;DHT22;42052;41.634;-0.946;2022-12-18T18:03:27;21.50;45.80
56172;DHT22;42052;41.634;-0.946;2022-12-18T18:06:13;21.50;45.80
56172;DHT22;42052;41.634;-0.946;2022-12-18T18:09:00;21.50;45.80
56172;DHT22;42052;41.634;-0.946;2022-12-18T18:11:47;21.50;45.80
56172;DHT22;42052;41.634;-0.946;2022-12-18T18:14:52;21.50;45.80
56172;DHT22;42052;41.634;-0.946;2022-12-18T18:17:38;21.50;45.70
56172;DHT22;42052;41.634;-0.946;2022-12-18T18:20:24;21.60;46.40
56172;DHT22;42052;41.634;-0.946;2022-12-18T18:23:10;21.60;45.70
56172;DHT22;42052;41.634;-0.946;2022-12-18T18:26:02;21.70;45.60
56172;DHT22;42052;41.634;-0.946;2022-12-18T18:28:48;21.60;45.60
56172;DHT22;42052;41.634;-0.946;2022-12-18T18:31:35;21.60;45.60
56172;DHT22;42052;41.634;-0.946;2022-12-18T18:34:23;21.60;45.70
56172;DHT22;42052;41.634;-0.946;2022-12-18T18:37:10;21.60;45.80
56172;DHT22;42052;41.634;-0.946;2022-12-18T18:39:56;21.60;45.80
56172;DHT22;42052;41.634;-0.946;2022-12-18T18:42:42;21.60;45.90
56172;DHT22;42052;41.634;-0.946;2022-12-18T18:45:28;21.50;45.80
56172;DHT22;42052;41.634;-0.946;2022-12-18T18:48:14;21.60;45.80
56172;DHT22;42052;41.634;-0.946;2022-12-18T18:51:04;21.50;45.80
56172;DHT22;42052;41.634;-0.946;2022-12-18T18:53:52;21.60;45.80
56172;DHT22;42052;41.634;-0.946;2022-12-18T18:56:38;21.60;45.80
56172;DHT22;42052;41.634;-0.946;2022-12-18T18:59:24;21.50;45.70
56172;DHT22;42052;41.634;-0.946;2022-12-18T19:02:11;21.60;45.80
56172;DHT22;42052;41.634;-0.946;2022-12-18T19:04:57;21.60;45.60